createdAt,value
2022-11-13T00:01:15.332Z,2.50
2022-11-13T00:03:42.162Z,2.50
2022-11-13T00:06:09.803Z,2.50
2022-11-13T00:08:37.019Z,2.50
2022-11-13T00:11:09.169Z,2.50
2022-11-13T00:13:36.289Z,2.30
2022-11-13T00:16:05.488Z,2.20
2022-11-13T00:18:34.807Z,2.30
2022-11-13T00:21:06.927Z,2.30
2022-11-13T00:23:34.794Z,2.20
2022-11-13T00:26:06.799Z,2.20
2022-11-13T00:28:33.575Z,2.20
2022-11-13T00:31:01.487Z,2.20
2022-11-13T00:33:54.867Z,2.20
2022-11-13T00:36:18.634Z,2.10
2022-11-13T00:38:45.608Z,2.10
2022-11-13T00:41:12.772Z,2.00
2022-11-13T00:43:39.949Z,2.10
2022-11-13T00:46:06.866Z,2.00
2022-11-13T00:48:34.212Z,2.10
2022-11-13T00:51:01.151Z,2.00
2022-11-13T00:53:27.873Z,2.10
2022-11-13T00:55:54.851Z,2.00
2022-11-13T00:58:21.785Z,1.90
2022-11-13T01:00:48.801Z,1.90
2022-11-13T01:03:17.389Z,1.90
2022-11-13T01:05:45.709Z,1.80
2022-11-13T01:08:14.071Z,1.80
2022-11-13T01:10:44.817Z,1.80
2022-11-13T01:13:13.381Z,1.80
2022-11-13T01:15:41.313Z,1.80
2022-11-13T01:18:08.059Z,1.80
2022-11-13T01:20:35.781Z,1.70
2022-11-13T01:23:03.605Z,1.70
2022-11-13T01:25:31.068Z,1.70
2022-11-13T01:27:57.970Z,1.80
2022-11-13T01:30:24.858Z,1.80
2022-11-13T01:32:51.539Z,1.70
2022-11-13T01:35:18.266Z,1.60
2022-11-13T01:37:44.890Z,1.50
2022-11-13T01:40:13.484Z,1.50
2022-11-13T01:42:40.240Z,1.40
2022-11-13T01:45:45.061Z,1.50
2022-11-13T01:48:12.503Z,1.50
2022-11-13T01:50:39.673Z,1.50
2022-11-13T01:53:07.218Z,1.40
2022-11-13T01:55:33.951Z,1.40
2022-11-13T01:58:01.952Z,1.40
2022-11-13T02:00:28.588Z,1.40
2022-11-13T02:02:55.206Z,1.40
2022-11-13T02:05:21.815Z,1.40
2022-11-13T02:07:48.804Z,1.30
2022-11-13T02:10:15.630Z,1.30
2022-11-13T02:12:50.152Z,1.20
2022-11-13T02:15:18.874Z,1.10
2022-11-13T02:17:52.511Z,1.10
2022-11-13T02:20:35.185Z,1.10
2022-11-13T02:23:17.402Z,1.00
2022-11-13T02:25:47.508Z,1.10
2022-11-13T02:28:14.569Z,1.10
2022-11-13T02:30:41.365Z,1.00
2022-11-13T02:33:23.752Z,1.10
2022-11-13T02:35:50.637Z,1.00
2022-11-13T02:38:17.545Z,1.00
2022-11-13T02:40:44.240Z,1.10
2022-11-13T02:43:11.287Z,1.10
2022-11-13T02:45:40.636Z,1.10
2022-11-13T02:48:08.138Z,1.10
2022-11-13T02:50:35.866Z,1.10
2022-11-13T02:53:02.959Z,1.10
2022-11-13T02:55:29.586Z,1.10
2022-11-13T02:57:56.205Z,1.20
2022-11-13T03:00:23.198Z,1.00
2022-11-13T03:02:49.951Z,0.90
2022-11-13T03:05:16.689Z,0.90
2022-11-13T03:07:43.343Z,1.00
2022-11-13T03:10:11.208Z,1.00
2022-11-13T03:12:38.470Z,1.00
2022-11-13T03:15:06.521Z,0.90
2022-11-13T03:17:33.729Z,0.80
2022-11-13T03:20:00.492Z,0.80
2022-11-13T03:22:27.702Z,0.90
2022-11-13T03:24:54.308Z,0.90
2022-11-13T03:27:20.996Z,0.90
2022-11-13T03:29:47.787Z,0.90
2022-11-13T03:32:14.480Z,0.90
2022-11-13T03:34:41.100Z,0.80
2022-11-13T03:37:07.802Z,0.70
2022-11-13T03:39:34.388Z,0.80
2022-11-13T03:42:01.055Z,0.80
2022-11-13T03:44:27.627Z,0.80
2022-11-13T03:46:54.205Z,0.80
2022-11-13T03:49:20.786Z,0.80
2022-11-13T03:51:47.622Z,0.80
2022-11-13T03:54:14.239Z,0.70
2022-11-13T03:56:40.881Z,0.70
2022-11-13T03:59:07.653Z,0.70
2022-11-13T04:01:34.869Z,0.60
2022-11-13T04:04:01.604Z,0.70
2022-11-13T04:06:28.207Z,0.70
2022-11-13T04:08:54.811Z,0.70
2022-11-13T04:11:21.409Z,0.70
2022-11-13T04:13:48.005Z,0.70
2022-11-13T04:16:14.727Z,0.60
2022-11-13T04:18:41.297Z,0.60
2022-11-13T04:21:07.910Z,0.70
2022-11-13T04:23:34.498Z,0.60
2022-11-13T04:26:01.201Z,0.60
2022-11-13T04:28:29.190Z,0.50
2022-11-13T04:30:56.467Z,0.50
2022-11-13T04:33:23.264Z,0.40
2022-11-13T04:35:49.912Z,0.50
2022-11-13T04:38:16.536Z,0.40
2022-11-13T04:40:43.761Z,0.50
2022-11-13T04:43:10.424Z,0.50
2022-11-13T04:45:37.716Z,0.50
2022-11-13T04:48:04.522Z,0.50
2022-11-13T04:50:31.574Z,0.50
2022-11-13T04:52:58.393Z,0.50
2022-11-13T04:55:25.258Z,0.50
2022-11-13T04:57:55.334Z,0.40
2022-11-13T05:00:22.227Z,0.30
2022-11-13T05:02:49.215Z,0.30
2022-11-13T05:05:16.084Z,0.30
2022-11-13T05:07:42.776Z,0.30
2022-11-13T05:10:09.921Z,0.30
2022-11-13T05:12:36.614Z,0.30
2022-11-13T05:15:03.718Z,0.20
2022-11-13T05:17:30.401Z,0.40
2022-11-13T05:19:57.066Z,0.40
2022-11-13T05:22:23.645Z,0.40
2022-11-13T05:24:50.233Z,0.30
2022-11-13T05:27:17.711Z,0.20
2022-11-13T05:29:45.052Z,0.30
2022-11-13T05:32:11.687Z,0.30
2022-11-13T05:34:38.346Z,0.20
2022-11-13T05:37:04.980Z,0.20
2022-11-13T05:39:31.589Z,0.20
2022-11-13T05:41:58.222Z,0.20
2022-11-13T05:44:24.828Z,0.20
2022-11-13T05:46:51.426Z,0.20
2022-11-13T05:49:18.160Z,0.20
2022-11-13T05:51:44.816Z,0.10
2022-11-13T05:54:11.425Z,0.20
2022-11-13T05:56:38.380Z,0.10
2022-11-13T05:59:05.199Z,0.10
2022-11-13T06:01:38.245Z,0.10
2022-11-13T06:04:06.425Z,0.10
2022-11-13T06:06:34.379Z,0.10
2022-11-13T06:09:03.398Z,0.10
2022-11-13T06:11:30.724Z,0.10
2022-11-13T06:13:59.065Z,0.10
2022-11-13T06:16:27.000Z,0.10
2022-11-13T06:18:58.969Z,0.00
2022-11-13T06:21:29.559Z,-0.10
2022-11-13T06:23:57.603Z,-0.20
2022-11-13T06:26:26.999Z,-0.10
2022-11-13T06:28:53.725Z,-0.20
2022-11-13T06:31:23.081Z,-0.20
2022-11-13T06:33:50.004Z,-0.10
2022-11-13T06:36:20.014Z,-0.10
2022-11-13T06:38:47.932Z,-0.10
2022-11-13T06:41:16.128Z,0.00
2022-11-13T06:43:43.281Z,-0.20
2022-11-13T06:46:20.050Z,-0.10
2022-11-13T06:48:47.263Z,0.00
2022-11-13T06:51:19.835Z,-0.10
2022-11-13T06:53:47.291Z,0.00
2022-11-13T06:56:14.650Z,0.10
2022-11-13T06:58:41.573Z,0.10
2022-11-13T07:01:13.614Z,0.10
2022-11-13T07:03:41.044Z,0.00
2022-11-13T07:06:13.798Z,0.00
2022-11-13T07:08:41.657Z,0.00
2022-11-13T07:11:10.998Z,0.00
2022-11-13T07:13:38.811Z,-0.10
2022-11-13T07:16:16.210Z,-0.10
2022-11-13T07:18:45.212Z,-0.10
2022-11-13T07:21:13.351Z,0.00
2022-11-13T07:23:43.053Z,0.00
2022-11-13T07:26:11.269Z,0.00
2022-11-13T07:28:38.564Z,0.10
2022-11-13T07:31:06.221Z,0.00
2022-11-13T07:33:33.251Z,0.10
2022-11-13T07:35:59.965Z,0.10
2022-11-13T07:38:27.191Z,0.10
2022-11-13T07:40:54.484Z,0.10
2022-11-13T07:43:21.098Z,0.20
2022-11-13T07:45:47.845Z,0.20
2022-11-13T07:48:14.722Z,0.30
2022-11-13T07:50:41.371Z,0.30
2022-11-13T07:53:10.208Z,0.40
2022-11-13T07:55:37.178Z,0.50
2022-11-13T07:58:05.160Z,0.60
2022-11-13T08:00:34.739Z,0.70
2022-11-13T08:03:14.491Z,0.70
2022-11-13T08:05:42.124Z,0.70
2022-11-13T08:08:11.439Z,0.90
2022-11-13T08:10:38.035Z,1.10
2022-11-13T08:13:07.596Z,1.20
2022-11-13T08:15:34.722Z,1.20
2022-11-13T08:18:03.298Z,1.20
2022-11-13T08:20:31.084Z,1.40
2022-11-13T08:22:59.341Z,1.80
2022-11-13T08:25:26.637Z,2.30
2022-11-13T08:27:54.091Z,3.20
2022-11-13T08:30:21.697Z,4.00
2022-11-13T08:32:48.910Z,4.70
2022-11-13T08:35:19.710Z,6.00
2022-11-13T08:37:47.874Z,7.00
2022-11-13T08:40:14.775Z,7.90
2022-11-13T08:42:41.547Z,8.70
2022-11-13T08:45:08.812Z,9.10
2022-11-13T08:47:35.900Z,9.20
2022-11-13T08:50:02.948Z,9.90
2022-11-13T08:52:29.676Z,10.40
2022-11-13T08:54:56.511Z,10.70
2022-11-13T08:57:23.208Z,11.00
2022-11-13T08:59:49.829Z,11.40
2022-11-13T09:02:16.479Z,12.00
2022-11-13T09:04:43.263Z,12.50
2022-11-13T09:07:11.446Z,12.40
2022-11-13T09:09:38.164Z,11.60
2022-11-13T09:12:05.094Z,10.20
2022-11-13T09:14:31.718Z,9.70
2022-11-13T09:16:58.496Z,9.40
2022-11-13T09:19:25.817Z,9.40
2022-11-13T09:21:52.814Z,9.10
2022-11-13T09:24:19.551Z,8.80
2022-11-13T09:26:46.412Z,8.50
2022-11-13T09:29:13.029Z,8.60
2022-11-13T09:31:41.119Z,9.00
2022-11-13T09:34:08.675Z,9.50
2022-11-13T09:36:35.765Z,9.60
2022-11-13T09:39:03.011Z,10.00
2022-11-13T09:41:44.458Z,10.40
2022-11-13T09:44:43.376Z,11.10
2022-11-13T09:47:24.673Z,11.50
2022-11-13T09:49:56.478Z,11.70
2022-11-13T09:52:42.522Z,12.10
2022-11-13T09:55:13.802Z,13.20
2022-11-13T09:57:50.177Z,13.80
2022-11-13T10:00:19.853Z,14.30
2022-11-13T10:03:11.338Z,14.40
2022-11-13T10:05:44.748Z,14.70
2022-11-13T10:08:22.289Z,15.10
2022-11-13T10:11:10.462Z,15.00
2022-11-13T10:13:50.674Z,15.40
2022-11-13T10:16:33.042Z,17.20
2022-11-13T10:19:32.426Z,18.50
2022-11-13T10:22:31.783Z,20.60
2022-11-13T10:25:04.340Z,21.80
2022-11-13T10:27:31.061Z,22.90
2022-11-13T10:29:57.758Z,23.90
2022-11-13T10:32:32.011Z,24.10
2022-11-13T10:35:31.891Z,24.10
2022-11-13T10:38:07.800Z,25.40
2022-11-13T10:40:37.745Z,25.60
2022-11-13T10:43:07.072Z,26.30
2022-11-13T10:45:33.660Z,25.70
2022-11-13T10:48:05.031Z,25.50
2022-11-13T10:50:33.012Z,25.10
2022-11-13T10:52:59.835Z,25.40
2022-11-13T10:55:40.006Z,24.80
2022-11-13T10:58:18.407Z,25.50
2022-11-13T11:00:49.084Z,26.40
2022-11-13T11:03:20.093Z,26.60
2022-11-13T11:05:58.561Z,26.10
2022-11-13T11:08:34.298Z,25.80
2022-11-13T11:11:32.174Z,26.20
2022-11-13T11:14:22.466Z,26.80
2022-11-13T11:16:51.862Z,26.20
2022-11-13T11:19:22.804Z,27.10
2022-11-13T11:21:53.744Z,27.40
2022-11-13T11:24:35.139Z,27.30
2022-11-13T11:27:09.752Z,27.50
2022-11-13T11:29:54.881Z,27.60
2022-11-13T11:32:31.492Z,27.40
2022-11-13T11:35:24.398Z,27.50
2022-11-13T11:38:37.275Z,28.20
2022-11-13T11:41:16.195Z,28.40
2022-11-13T11:43:54.257Z,29.10
2022-11-13T11:46:24.309Z,28.50
2022-11-13T11:48:51.187Z,29.00
2022-11-13T11:51:31.345Z,28.80
2022-11-13T11:54:11.289Z,28.60
2022-11-13T11:56:45.891Z,28.80
2022-11-13T11:59:12.474Z,29.50
2022-11-13T12:02:08.330Z,28.90
2022-11-13T12:05:02.219Z,28.40
2022-11-13T12:07:43.623Z,28.50
2022-11-13T12:10:32.082Z,28.30
2022-11-13T12:13:33.853Z,28.80
2022-11-13T12:16:29.882Z,29.70
2022-11-13T12:19:16.632Z,29.40
2022-11-13T12:21:55.448Z,29.50
2022-11-13T12:24:51.720Z,30.00
2022-11-13T12:27:35.757Z,28.70
2022-11-13T12:30:09.071Z,28.40
2022-11-13T12:33:06.745Z,28.60
2022-11-13T12:35:33.587Z,27.40
2022-11-13T12:38:11.852Z,25.00
2022-11-13T12:41:00.314Z,22.70
2022-11-13T12:43:52.065Z,20.70
2022-11-13T12:46:19.329Z,19.70
2022-11-13T12:48:47.945Z,19.00
2022-11-13T12:51:17.340Z,18.50
2022-11-13T12:53:55.901Z,17.80
2022-11-13T12:56:28.286Z,17.60
2022-11-13T13:02:27.773Z,17.10
2022-11-13T13:05:22.143Z,16.70
2022-11-13T13:08:04.992Z,16.60
2022-11-13T13:11:00.519Z,16.40
2022-11-13T13:13:45.527Z,16.20
2022-11-13T13:16:20.195Z,16.00
2022-11-13T13:18:47.066Z,15.80
2022-11-13T13:21:16.285Z,15.70
2022-11-13T13:23:48.979Z,15.60
2022-11-13T13:26:21.227Z,15.50
2022-11-13T13:29:00.917Z,15.40
2022-11-13T13:31:27.458Z,15.20
2022-11-13T13:34:30.023Z,15.20
2022-11-13T13:37:09.549Z,16.10
2022-11-13T13:40:00.535Z,17.60
2022-11-13T13:42:49.241Z,18.40
2022-11-13T13:45:50.984Z,19.00
2022-11-13T13:48:21.026Z,19.60
2022-11-13T13:50:49.816Z,19.60
2022-11-13T13:53:21.728Z,19.50
2022-11-13T13:55:59.162Z,19.20
2022-11-13T13:58:33.173Z,18.70
2022-11-13T14:01:19.490Z,18.30
2022-11-13T14:03:46.838Z,17.60
2022-11-13T14:06:22.441Z,16.80
2022-11-13T14:08:49.448Z,16.30
2022-11-13T14:11:29.349Z,16.00
2022-11-13T14:14:22.962Z,15.60
2022-11-13T14:16:58.241Z,15.00
2022-11-13T14:19:25.102Z,14.60
2022-11-13T14:21:58.441Z,14.30
2022-11-13T14:24:43.259Z,14.00
2022-11-13T14:27:18.374Z,13.70
2022-11-13T14:29:56.913Z,13.40
2022-11-13T14:32:28.150Z,13.20
2022-11-13T14:35:00.987Z,12.80
2022-11-13T14:37:39.314Z,12.50
2022-11-13T14:40:18.972Z,12.30
2022-11-13T14:42:48.025Z,12.10
2022-11-13T14:45:17.591Z,11.90
2022-11-13T14:47:55.575Z,11.70
2022-11-13T14:50:24.546Z,11.50
2022-11-13T14:53:09.041Z,11.30
2022-11-13T14:55:52.363Z,11.20
2022-11-13T14:58:43.710Z,11.00
2022-11-13T15:01:16.343Z,10.80
2022-11-13T15:03:44.430Z,10.70
2022-11-13T15:06:25.402Z,10.60
2022-11-13T15:08:58.099Z,10.50
2022-11-13T15:11:26.596Z,10.30
2022-11-13T15:13:53.735Z,10.10
2022-11-13T15:16:31.259Z,10.00
2022-11-13T15:19:03.882Z,9.90
2022-11-13T15:21:31.471Z,9.70
2022-11-13T15:23:58.223Z,9.50
2022-11-13T15:26:24.876Z,9.50
2022-11-13T15:28:51.598Z,9.20
2022-11-13T15:31:30.456Z,9.10
2022-11-13T15:33:57.241Z,9.00
2022-11-13T15:36:23.894Z,8.90
2022-11-13T15:38:50.487Z,8.80
2022-11-13T15:41:22.150Z,8.70
2022-11-13T15:43:51.076Z,8.40
2022-11-13T15:46:19.622Z,8.40
2022-11-13T15:48:47.218Z,8.30
2022-11-13T15:51:29.875Z,8.20
2022-11-13T15:54:04.954Z,8.10
2022-11-13T15:56:31.599Z,8.00
2022-11-13T15:58:58.232Z,7.90
2022-11-13T16:01:24.916Z,7.80
2022-11-13T16:03:51.821Z,7.60
2022-11-13T16:06:21.148Z,7.50
2022-11-13T16:08:48.998Z,7.40
2022-11-13T16:11:17.282Z,7.20
2022-11-13T16:13:44.568Z,7.10
2022-11-13T16:16:26.196Z,7.00
2022-11-13T16:18:58.783Z,7.00
2022-11-13T16:21:26.839Z,6.80
2022-11-13T16:23:53.993Z,6.60
2022-11-13T16:26:25.746Z,6.50
2022-11-13T16:29:12.577Z,6.40
2022-11-13T16:31:40.047Z,6.40
2022-11-13T16:34:06.987Z,6.30
2022-11-13T16:36:33.593Z,6.20
2022-11-13T16:39:00.228Z,6.20
2022-11-13T16:41:27.030Z,6.10
2022-11-13T16:43:53.605Z,6.00
2022-11-13T16:46:28.196Z,6.00
2022-11-13T16:48:55.252Z,5.90
2022-11-13T16:51:21.956Z,5.80
2022-11-13T16:53:48.575Z,5.70
2022-11-13T16:56:24.674Z,5.70
2022-11-13T16:58:51.563Z,5.60
2022-11-13T17:01:19.925Z,5.50
2022-11-13T17:03:46.616Z,5.40
2022-11-13T17:06:26.846Z,5.40
2022-11-13T17:08:55.745Z,5.40
2022-11-13T17:11:24.015Z,5.30
2022-11-13T17:13:51.987Z,5.20
2022-11-13T17:16:19.419Z,5.10
2022-11-13T17:18:48.354Z,5.10
2022-11-13T17:21:16.918Z,5.00
2022-11-13T17:23:44.404Z,5.00
2022-11-13T17:26:12.681Z,5.00
2022-11-13T17:28:45.434Z,4.90
2022-11-13T17:31:17.226Z,4.80
2022-11-13T17:33:47.156Z,4.80
2022-11-13T17:36:14.738Z,4.80
2022-11-13T17:38:41.441Z,4.70
2022-11-13T17:41:10.746Z,4.80
2022-11-13T17:43:39.349Z,4.70
2022-11-13T17:46:07.210Z,4.70
2022-11-13T17:48:34.753Z,4.60
2022-11-13T17:51:04.153Z,4.40
2022-11-13T17:53:31.642Z,4.50
2022-11-13T17:56:04.793Z,4.50
2022-11-13T17:58:40.357Z,4.40
2022-11-13T18:01:10.851Z,4.40
2022-11-13T18:03:37.667Z,4.30
2022-11-13T18:06:13.588Z,4.30
2022-11-13T18:08:42.459Z,4.10
2022-11-13T18:11:11.973Z,4.10
2022-11-13T18:13:38.698Z,4.10
2022-11-13T18:16:10.672Z,4.10
2022-11-13T18:18:37.466Z,4.10
2022-11-13T18:21:36.173Z,4.00
2022-11-13T18:24:10.072Z,4.00
2022-11-13T18:26:36.946Z,4.00
2022-11-13T18:29:04.416Z,4.00
2022-11-13T18:31:34.624Z,4.00
2022-11-13T18:34:02.616Z,3.90
2022-11-13T18:36:31.575Z,3.80
2022-11-13T18:39:02.435Z,3.80
2022-11-13T18:41:29.575Z,3.80
2022-11-13T18:43:56.210Z,3.60
2022-11-13T18:46:23.172Z,3.60
2022-11-13T18:48:50.092Z,3.60
2022-11-13T18:51:25.133Z,3.50
2022-11-13T18:53:52.870Z,3.50
2022-11-13T18:56:25.012Z,3.40
2022-11-13T18:58:54.092Z,3.20
2022-11-13T19:01:27.068Z,3.30
2022-11-13T19:04:21.256Z,3.20
2022-11-13T19:06:42.687Z,3.10
2022-11-13T19:09:14.769Z,3.00
2022-11-13T19:11:42.383Z,3.00
2022-11-13T19:14:10.888Z,2.90
2022-11-13T19:16:39.113Z,2.90
2022-11-13T19:19:17.855Z,2.80
2022-11-13T19:21:44.523Z,2.80
2022-11-13T19:24:11.949Z,2.70
2022-11-13T19:26:38.956Z,2.70
2022-11-13T19:29:05.701Z,2.80
2022-11-13T19:31:33.273Z,2.70
2022-11-13T19:34:02.298Z,2.50
2022-11-13T19:36:31.156Z,2.60
2022-11-13T19:38:58.598Z,2.50
2022-11-13T19:41:27.660Z,2.40
2022-11-13T19:43:54.677Z,2.40
2022-11-13T19:46:21.443Z,2.40
2022-11-13T19:48:49.460Z,2.40
2022-11-13T19:51:19.489Z,2.30
2022-11-13T19:53:47.200Z,2.30
2022-11-13T19:56:15.732Z,2.40
2022-11-13T19:58:44.238Z,2.50
2022-11-13T20:01:12.824Z,2.40
2022-11-13T20:03:39.793Z,2.40
2022-11-13T20:06:07.294Z,2.40
2022-11-13T20:08:35.293Z,2.50
2022-11-13T20:11:07.351Z,2.30
2022-11-13T20:13:36.472Z,2.40
2022-11-13T20:16:04.693Z,2.40
2022-11-13T20:18:31.667Z,2.20
2022-11-13T20:20:58.690Z,2.20
2022-11-13T20:23:25.978Z,1.90
2022-11-13T20:26:01.368Z,2.00
2022-11-13T20:28:29.365Z,2.00
2022-11-13T20:31:06.852Z,1.90
2022-11-13T20:33:34.892Z,1.90
2022-11-13T20:36:02.761Z,1.90
2022-11-13T20:38:29.947Z,1.90
2022-11-13T20:40:56.839Z,1.90
2022-11-13T20:43:23.571Z,1.90
2022-11-13T20:45:51.306Z,1.80
2022-11-13T20:48:17.959Z,1.90
2022-11-13T20:50:44.815Z,1.80
2022-11-13T20:53:11.480Z,1.70
2022-11-13T20:55:38.743Z,1.60
2022-11-13T20:58:05.750Z,1.50
2022-11-13T21:00:32.397Z,1.60
2022-11-13T21:03:00.134Z,1.60
2022-11-13T21:05:27.996Z,1.50
2022-11-13T21:07:54.739Z,1.50
2022-11-13T21:10:21.641Z,1.50
2022-11-13T21:12:48.285Z,1.40
2022-11-13T21:15:14.939Z,1.40
2022-11-13T21:17:41.585Z,1.50
2022-11-13T21:20:08.790Z,1.40
2022-11-13T21:22:35.488Z,1.30
2022-11-13T21:25:02.098Z,1.20
2022-11-13T21:27:28.782Z,1.10
2022-11-13T21:29:55.399Z,1.20
2022-11-13T21:32:22.133Z,1.30
2022-11-13T21:34:48.784Z,1.20
2022-11-13T21:37:15.938Z,1.10
2022-11-13T21:39:42.655Z,1.10
2022-11-13T21:42:09.402Z,1.00
2022-11-13T21:44:35.993Z,1.10
2022-11-13T21:47:02.688Z,1.10
2022-11-13T21:49:29.474Z,1.10
2022-11-13T21:51:56.127Z,1.20
2022-11-13T21:54:22.762Z,0.90
2022-11-13T21:56:49.366Z,0.90
2022-11-13T21:59:16.020Z,1.00
2022-11-13T22:01:42.696Z,0.90
2022-11-13T22:04:09.363Z,0.80
2022-11-13T22:06:36.572Z,0.90
2022-11-13T22:09:04.932Z,0.80
2022-11-13T22:11:34.213Z,0.70
2022-11-13T22:14:01.563Z,0.80
2022-11-13T22:16:30.082Z,0.80
2022-11-13T22:18:58.971Z,0.70
2022-11-13T22:21:27.243Z,0.80
2022-11-13T22:23:54.521Z,0.70
2022-11-13T22:26:23.867Z,0.80
2022-11-13T22:28:51.402Z,0.70
2022-11-13T22:31:24.213Z,0.80
2022-11-13T22:33:54.825Z,0.60
2022-11-13T22:36:25.788Z,0.50
2022-11-13T22:38:53.122Z,0.60
2022-11-13T22:41:24.799Z,0.60
2022-11-13T22:43:53.607Z,0.60
2022-11-13T22:46:22.775Z,0.80
2022-11-13T22:48:50.834Z,0.80
2022-11-13T22:51:20.196Z,0.70
2022-11-13T22:53:55.205Z,0.50
2022-11-13T22:56:23.885Z,0.60
2022-11-13T22:58:51.956Z,0.60
2022-11-13T23:01:21.424Z,0.60
2022-11-13T23:03:49.386Z,0.60
2022-11-13T23:06:24.685Z,0.40
2022-11-13T23:08:51.821Z,0.50
2022-11-13T23:11:21.500Z,0.40
2022-11-13T23:13:51.283Z,0.20
2022-11-13T23:16:18.677Z,0.40
2022-11-13T23:18:45.930Z,0.40
2022-11-13T23:21:13.508Z,0.50
2022-11-13T23:23:40.569Z,0.50
2022-11-13T23:26:08.766Z,0.50
2022-11-13T23:28:36.469Z,0.40
2022-11-13T23:31:03.562Z,0.30
2022-11-13T23:33:30.554Z,0.30
2022-11-13T23:35:57.760Z,0.30
2022-11-13T23:38:24.633Z,0.20
2022-11-13T23:40:55.285Z,0.20
2022-11-13T23:43:22.731Z,0.30
2022-11-13T23:45:50.083Z,0.30
2022-11-13T23:48:17.336Z,0.30
2022-11-13T23:50:44.264Z,0.20
2022-11-13T23:53:11.473Z,0.20
2022-11-13T23:55:39.179Z,0.10
2022-11-13T23:58:09.076Z,0.10
